Latest Weather Observations for Edinburgh

IDS60901

Issued at 7:31 pm CST Sunday 26 June 2016 (issued every 10 minutes, with the page automatically refreshed every 10 minutes)

About weather observations | Map of Adelaide area stations | Latest observations for Adelaide area | Other Formats
Station Details ID: 023083 Name: EDINBURGH RAAF Lat: -34.71 Lon: 138.62 Height: 16.54 m
Data from the previous 72 hours. | See also: Recent months at Edinburgh
Date/Time
CST
Temp
°C
App
Temp
°C
Dew
Point
°C
Rel
Hum
%
Delta-T
°C
Wind Press
QNH
hPa
Press
MSL
hPa
Rain since
9am
mm
Dir  Spd
km/h
Gust
km/h
Spd
kts
Gust
kts
26/07:30pm 7.4 4.2 5.2 86 1.0 NE 11 13 6 7 1017.1 1017.1 0.0
26/07:00pm 8.5 5.6 6.3 86 1.0 NE 11 13 6 7 1017.1 1017.1 0.0
26/06:30pm 8.3 6.0 5.8 84 1.1 NE 7 9 4 5 1016.8 1016.8 0.0
26/06:00pm 9.2 6.3 6.3 82 1.3 NE 11 13 6 7 1016.5 1016.5 0.0
26/05:30pm 10.1 8.0 6.8 80 1.5 NNE 7 9 4 5 1016.2 1016.2 0.0
26/05:00pm 11.0 8.6 6.9 76 1.9 N 9 11 5 6 1016.1 1016.1 0.0
26/04:30pm 11.4 8.6 6.9 74 2.1 NNW 11 15 6 8 1016.0 1016.0 0.0
26/04:00pm 11.7 8.9 6.8 72 2.3 NNW 11 17 6 9 1015.8 1015.8 0.0
26/03:30pm 11.2 7.5 6.3 72 2.3 WNW 15 20 8 11 1015.9 1015.9 0.0
26/03:00pm 10.8 5.0 6.2 73 2.1 WNW 26 33 14 18 1016.0 1016.0 0.0
26/02:30pm 12.3 7.7 6.6 68 2.7 NW 20 26 11 14 1016.1 1016.1 0.0
26/02:00pm 12.4 8.0 6.5 67 2.8 NW 19 24 10 13 1016.2 1016.2 0.0
26/01:30pm 13.0 7.5 5.9 62 3.3 NW 24 28 13 15 1016.2 1016.2 0.0
26/01:00pm 13.2 9.3 7.2 67 2.9 NW 17 22 9 12 1016.5 1016.5 0.0
26/12:30pm 12.7 8.7 6.7 67 2.9 NNW 17 19 9 10 1016.9 1016.9 0.0
26/12:00pm 12.3 8.7 6.6 68 2.7 N 15 19 8 10 1017.4 1017.4 0.0
26/11:30am 12.2 8.2 6.7 69 2.6 NNW 17 20 9 11 1018.0 1018.0 0.0
26/11:00am 13.2 9.7 7.0 66 3.0 N 15 19 8 10 1018.3 1018.3 0.0
26/10:30am 12.1 8.9 6.8 70 2.5 NNE 13 19 7 10 1018.6 1018.6 0.0
26/10:00am 11.3 8.0 6.2 71 2.4 NNE 13 17 7 9 1018.8 1018.8 0.0
26/09:30am 9.9 6.9 6.1 77 1.8 N 11 15 6 8 1019.0 1019.0 0.0
26/09:00am 9.7 6.7 6.2 79 1.6 N 11 15 6 8 1019.2 1019.2 0.0
26/08:30am 9.5 6.1 5.9 78 1.6 NNE 13 19 7 10 1019.0 1019.0 0.0
26/08:00am 9.1 6.4 5.8 80 1.5 ENE 9 11 5 6 1018.9 1018.9 0.0
26/07:30am 8.8 6.2 6.1 83 1.2 NE 9 13 5 7 1018.8 1018.8 0.0
26/07:00am 8.7 6.0 5.8 82 1.3 NE 9 11 5 6 1018.5 1018.5 0.0
26/06:30am 9.2 6.9 5.6 78 1.6 ENE 7 9 4 5 1018.0 1018.0 0.0
26/06:00am 9.2 6.9 5.8 79 1.5 E 7 9 4 5 1018.3 1018.3 0.0
26/05:30am 9.2 6.2 5.9 80 1.5 ENE 11 13 6 7 1018.5 1018.5 0.0
26/05:00am 9.1 5.8 6.4 83 1.2 NE 13 15 7 8 1018.5 1018.5 0.0
26/04:30am 9.0 6.4 6.3 83 1.2 N 9 13 5 7 1019.0 1019.0 0.0
26/04:00am 8.7 6.1 6.2 84 1.1 N 9 11 5 6 1019.4 1019.4 0.0
26/03:30am 9.2 6.2 6.1 81 1.4 NE 11 15 6 8 1019.3 1019.3 0.0
26/03:00am 9.2 6.6 5.9 80 1.5 NNE 9 11 5 6 1019.6 1019.6 0.0
26/02:30am 9.0 6.8 6.1 82 1.3 NNE 7 9 4 5 1019.5 1019.5 0.0
26/02:00am 9.3 6.7 5.9 79 1.6 N 9 9 5 5 1019.7 1019.7 0.0
26/01:30am 9.8 6.3 5.6 75 1.9 NE 13 15 7 8 1020.0 1020.0 0.0
26/01:00am 9.9 6.1 5.7 75 1.9 NE 15 17 8 9 1020.2 1020.2 0.0
26/12:30am 10.0 6.5 5.6 74 2.0 NE 13 19 7 10 1019.7 1019.7 0.0
26/12:00am 10.1 6.7 5.9 75 1.9 NE 13 15 7 8 1020.1 1020.1 0.0
 
Date/Time
CST
Temp
°C
App
Temp
°C
Dew
Point
°C
Rel
Hum
%
Delta-T
°C
Wind Press
QNH
hPa
Press
MSL
hPa
Rain since
9am
mm
Dir  Spd
km/h
Gust
km/h
Spd
kts
Gust
kts
25/11:30pm 10.0 7.1 6.5 79 1.6 NE 11 15 6 8 1020.4 1020.4 0.0
25/11:00pm 10.0 7.2 6.9 81 1.5 NE 11 13 6 7 1020.4 1020.4 0.0
25/10:30pm 9.9 7.1 7.0 82 1.4 NE 11 13 6 7 1021.0 1021.0 0.0
25/10:00pm 10.0 7.2 6.9 81 1.5 NE 11 15 6 8 1021.1 1021.1 0.0
25/09:30pm 10.0 7.1 6.7 80 1.5 NE 11 15 6 8 1021.3 1021.3 0.0
25/09:00pm 10.6 8.1 6.7 77 1.8 ENE 9 13 5 7 1021.0 1021.0 0.0
25/08:30pm 10.3 7.9 7.2 81 1.5 ENE 9 11 5 6 1021.3 1021.3 0.0
25/08:00pm 10.6 8.7 6.7 77 1.8 E 6 7 3 4 1021.6 1021.6 0.0
25/07:30pm 10.3 8.6 7.4 82 1.4 NNE 6 7 3 4 1022.1 1022.1 0.0
25/07:00pm 10.6 9.2 7.3 80 1.6 N 4 7 2 4 1022.4 1022.4 0.0
25/06:30pm 10.6 8.8 7.3 80 1.6 N 6 7 3 4 1022.1 1022.1 0.0
25/06:00pm 11.3 9.4 6.8 74 2.1 NNE 6 6 3 3 1021.7 1021.7 0.0
25/05:30pm 11.2 9.4 7.1 76 1.9 NNE 6 7 3 4 1021.7 1021.7 0.0
25/05:00pm 11.4 9.6 7.3 76 2.0 N 6 6 3 3 1021.9 1021.9 0.0
25/04:30pm 11.9 10.1 7.0 72 2.3 N 6 6 3 3 1021.9 1021.9 0.0
25/04:00pm 12.1 9.9 6.4 68 2.7 N 7 9 4 5 1022.1 1022.1 0.0
25/03:30pm 12.3 10.0 5.7 64 3.1 NNW 7 9 4 5 1022.1 1022.1 0.0
25/03:00pm 12.3 9.7 5.9 65 3.0 N 9 11 5 6 1022.3 1022.3 0.0
25/02:30pm 12.3 9.6 5.5 63 3.1 N 9 13 5 7 1022.5 1022.5 0.0
25/02:00pm 12.2 8.8 6.0 66 2.9 N 13 17 7 9 1022.6 1022.6 0.0
25/01:30pm 12.4 9.0 6.0 65 3.0 N 13 17 7 9 1023.0 1023.0 0.0
25/01:00pm 12.2 8.9 6.3 67 2.8 NNW 13 17 7 9 1023.5 1023.5 0.0
25/12:30pm 12.0 8.7 6.5 69 2.6 N 13 17 7 9 1024.1 1024.1 0.0
25/12:00pm 11.9 8.6 6.6 70 2.5 N 13 19 7 10 1024.7 1024.7 0.0
25/11:30am 12.0 9.0 7.5 74 2.2 NNE 13 17 7 9 1025.0 1025.0 0.0
25/11:00am 11.2 8.4 6.9 75 2.0 NNE 11 19 6 10 1025.5 1025.5 0.0
25/10:30am 10.5 7.0 7.0 79 1.6 NE 15 20 8 11 1025.7 1025.7 0.0
25/10:00am 9.9 6.2 6.4 79 1.6 NE 15 20 8 11 1025.7 1025.7 0.0
25/09:30am 9.4 5.3 6.1 80 1.5 NNE 17 20 9 11 1025.5 1025.5 0.0
25/09:00am 8.4 5.1 6.2 86 1.0 NNE 13 17 7 9 1025.5 1025.5 0.2
25/08:30am 7.2 4.5 5.8 91 0.6 NE 9 13 5 7 1025.4 1025.4 0.2
25/08:00am 6.3 3.4 4.9 91 0.6 NE 9 11 5 6 1025.2 1025.2 0.2
25/07:30am 6.4 3.2 5.0 91 0.6 NE 11 13 6 7 1025.0 1025.0 0.2
25/07:00am 6.8 4.1 5.6 92 0.5 NE 9 11 5 6 1024.7 1024.7 0.2
25/06:30am 6.8 4.1 5.4 91 0.6 NNE 9 11 5 6 1024.6 1024.6 0.2
25/06:00am 7.3 4.7 5.9 91 0.6 NE 9 9 5 5 1024.4 1024.4 0.2
25/05:30am 7.2 4.5 5.8 91 0.6 NE 9 11 5 6 1024.2 1024.2 0.2
25/05:00am 7.0 3.9 5.5 90 0.7 NE 11 15 6 8 1024.1 1024.1 0.2
25/04:30am 7.3 4.3 5.8 90 0.7 NNE 11 13 6 7 1024.0 1024.0 0.2
25/04:00am 7.7 4.4 6.2 90 0.7 NE 13 15 7 8 1024.0 1024.0 0.2
25/03:30am 7.7 4.4 6.2 90 0.7 ENE 13 15 7 8 1024.0 1024.0 0.0
25/03:00am 6.8 4.1 5.4 91 0.6 E 9 13 5 7 1024.0 1024.0 0.0
25/02:30am 5.9 3.0 4.7 92 0.5 NE 9 11 5 6 1023.8 1023.8 0.0
25/02:00am 5.7 2.4 4.5 92 0.5 ENE 11 13 6 7 1023.8 1023.8 0.0
25/01:30am 4.8 1.3 3.3 90 0.6 NE 11 13 6 7 1023.7 1023.7 0.0
25/01:00am 5.1 1.7 3.8 91 0.5 NE 11 13 6 7 1023.5 1023.5 0.0
25/12:30am 5.1 1.7 3.8 91 0.5 NE 11 13 6 7 1023.5 1023.5 0.0
25/12:00am 4.8 1.3 3.3 90 0.6 NNE 11 11 6 6 1023.3 1023.3 0.0
 
Date/Time
CST
Temp
°C
App
Temp
°C
Dew
Point
°C
Rel
Hum
%
Delta-T
°C
Wind Press
QNH
hPa
Press
MSL
hPa
Rain since
9am
mm
Dir  Spd
km/h
Gust
km/h
Spd
kts
Gust
kts
24/11:30pm 5.9 2.6 4.4 90 0.6 ENE 11 13 6 7 1023.2 1023.2 0.0
24/11:00pm 6.0 3.1 4.5 90 0.6 NE 9 13 5 7 1023.3 1023.3 0.0
24/10:30pm 6.0 3.0 4.0 87 0.8 NE 9 11 5 6 1023.3 1023.3 0.0
24/10:00pm 7.4 5.0 5.2 86 1.0 ENE 7 11 4 6 1023.3 1023.3 0.0
24/09:30pm 7.2 4.5 5.5 89 0.8 ENE 9 11 5 6 1023.3 1023.3 0.0
24/09:00pm 6.9 3.7 5.2 89 0.7 NE 11 13 6 7 1023.1 1023.1 0.0
24/08:30pm 6.6 3.7 4.8 88 0.8 ENE 9 11 5 6 1022.8 1022.8 0.0
24/08:00pm 6.1 3.1 3.9 86 0.9 NNE 9 9 5 5 1022.5 1022.5 0.0
24/07:30pm 7.8 5.9 5.1 83 1.2 WNW 4 6 2 3 1022.1 1022.1 0.0
24/07:00pm 8.3 5.6 5.6 83 1.2 SW 9 15 5 8 1021.8 1021.8 0.0
24/06:30pm 8.6 6.6 6.1 84 1.1 S 6 7 3 4 1021.2 1021.2 0.0
24/06:00pm 8.5 6.3 6.0 84 1.1 SW 7 9 4 5 1020.8 1020.8 0.0
24/05:30pm 9.0 5.7 6.3 83 1.2 SW 13 17 7 9 1020.4 1020.4 0.0
24/05:00pm 10.7 5.8 5.0 68 2.6 SW 20 24 11 13 1019.9 1019.9 0.0
24/04:30pm 11.4 5.8 5.3 66 2.8 SW 24 33 13 18 1019.5 1019.5 0.0
24/04:00pm 12.0 6.5 5.9 66 2.9 SW 24 33 13 18 1019.0 1019.0 0.0
24/03:30pm 12.9 6.4 4.8 58 3.7 WSW 28 37 15 20 1018.4 1018.4 0.0
24/03:00pm 12.5 6.9 5.2 61 3.4 SW 24 30 13 16 1018.2 1018.2 0.0
24/02:30pm 11.9 4.4 4.4 60 3.4 SW 33 44 18 24 1017.8 1017.8 0.0
24/02:00pm 12.4 5.1 4.6 59 3.6 SW 32 39 17 21 1017.6 1017.6 0.0
24/01:30pm 12.8 4.8 4.0 55 4.0 SW 35 46 19 25 1017.4 1017.4 0.0
24/01:00pm 12.7 4.1 4.4 57 3.8 SW 39 54 21 29 1017.4 1017.4 0.0
24/12:30pm 12.4 5.0 5.1 61 3.4 SW 33 46 18 25 1017.2 1017.2 0.0
24/12:00pm 12.5 4.8 5.4 62 3.3 SW 35 46 19 25 1017.3 1017.3 0.0
24/11:30am 12.1 2.5 3.6 56 3.8 SW 43 54 23 29 1017.2 1017.2 0.0
24/11:00am 11.9 3.2 4.2 59 3.5 SW 39 50 21 27 1017.1 1017.1 0.0
24/10:30am 11.6 3.1 3.4 57 3.6 SW 37 52 20 28 1016.8 1016.8 0.0
24/10:00am 11.0 1.1 2.8 57 3.5 SW 44 59 24 32 1016.1 1016.1 0.0
24/09:48am 11.0 2.9 3.1 58 3.4 SW 35 54 19 29 1015.9 1015.9 0.0
24/09:30am 10.5 1.3 3.5 62 3.1 SW 41 50 22 27 1015.6 1015.6 0.0
24/09:04am 10.3 2.7 4.0 65 2.8 SW 33 56 18 30 1014.9 1014.9 0.0
24/09:00am 10.6 3.5 5.4 70 2.4 SW 32 39 17 21 1014.9 1014.9 12.2
24/08:30am 8.8 1.9 4.6 75 1.9 SW 30 37 16 20 1014.3 1014.3 12.2
24/08:00am 8.6 0.9 5.2 79 1.5 SSW 35 57 19 31 1013.8 1013.8 12.2
24/07:54am 8.5 0.7 4.9 78 1.6 SW 35 57 19 31 1013.5 1013.5 12.2
24/07:50am 9.1 1.7 4.9 75 1.9 WSW 33 56 18 30 1013.4 1013.4 12.0
24/07:30am 7.8 0.7 5.3 84 1.1 WSW 32 43 17 23 1013.1 1013.1 11.8
24/07:09am 8.9 1.0 4.1 72 2.1 WSW 35 57 19 31 1012.6 1012.6 11.8
24/07:00am 9.0 0.9 3.4 68 2.4 WSW 35 46 19 25 1012.3 1012.3 11.6
24/06:30am 9.6 0.8 3.8 67 2.5 WSW 39 57 21 31 1011.7 1011.7 11.4
24/06:07am 8.8 0.0 3.8 71 2.2 WSW 39 57 21 31 1011.2 1011.2 11.4
24/06:00am 9.0 -0.7 4.0 71 2.2 WSW 44 57 24 31 1010.9 1010.9 11.4
24/05:38am 9.3 -0.6 2.9 64 2.7 WSW 44 63 24 34 1010.4 1010.4 11.4
24/05:30am 9.3 -0.5 2.4 62 2.9 WSW 43 57 23 31 1010.1 1010.1 11.4
24/05:00am 8.6 -1.0 3.2 69 2.3 SW 43 67 23 36 1009.6 1009.6 11.4
24/04:58am 9.7 0.8 3.0 63 2.9 SW 39 65 21 35 1009.6 1009.6 11.2
24/04:30am 8.2 1.8 5.3 82 1.3 WSW 28 39 15 21 1009.1 1009.1 11.2
24/04:02am 8.6 1.8 5.2 79 1.5 SW 30 54 16 29 1009.0 1009.0 10.8
24/04:00am 8.5 1.7 5.1 79 1.5 SW 30 39 16 21 1008.8 1008.8 10.8
24/03:30am 7.4 -1.2 4.5 82 1.3 WSW 39 78 21 42 1008.4 1008.5 10.8
24/03:02am 8.1 -3.0 4.7 79 1.5 SW 52 70 28 38 1008.1 1008.2 10.2
24/03:00am 8.0 -3.5 4.6 79 1.5 SW 54 70 29 38 1008.0 1008.1 10.2
24/02:52am 8.2 -2.3 5.5 83 1.2 SW 50 70 27 38 1007.8 1007.9 10.0
24/02:40am 8.8 1.3 6.3 84 1.2 WSW 35 61 19 33 1007.5 1007.6 9.6
24/02:30am 8.9 1.3 5.6 80 1.5 WSW 35 50 19 27 1007.5 1007.6 9.4
24/02:11am 8.6 -0.5 5.7 82 1.3 W 43 61 23 33 1007.2 1007.3 9.4
24/02:00am 8.8 -0.4 5.4 79 1.5 W 43 54 23 29 1007.1 1007.2 9.0
24/01:38am 8.2 -3.0 4.0 75 1.8 WSW 52 76 28 41 1007.1 1007.2 8.8
24/01:34am 9.1 -0.7 5.3 77 1.7 WSW 46 76 25 41 1007.1 1007.2 8.6
24/01:30am 9.7 1.5 4.9 72 2.2 WSW 37 56 20 30 1007.0 1007.1 8.6
24/01:01am 9.1 -1.7 4.1 71 2.2 WSW 50 69 27 37 1006.8 1006.9 8.6
24/01:00am 9.1 -2.1 4.1 71 2.2 WSW 52 69 28 37 1006.8 1006.9 8.6
24/12:50am 9.5 -0.7 5.1 74 2.0 W 48 78 26 42 1006.6 1006.7 8.6
24/12:49am 9.9 0.0 4.9 71 2.2 W 46 78 25 42 1006.5 1006.6 8.6
24/12:47am 11.1 2.3 5.4 68 2.6 W 41 78 22 42 1006.5 1006.6 8.6
24/12:44am 11.1 3.5 5.6 69 2.5 W 35 54 19 29 1006.5 1006.6 8.6
24/12:30am 10.7 3.6 5.3 69 2.5 W 32 41 17 22 1006.6 1006.7 8.6
24/12:00am 10.2 3.4 5.2 71 2.3 W 30 39 16 21 1006.7 1006.8 8.6
 
Date/Time
CST
Temp
°C
App
Temp
°C
Dew
Point
°C
Rel
Hum
%
Delta-T
°C
Wind Press
QNH
hPa
Press
MSL
hPa
Rain since
9am
mm
Dir  Spd
km/h
Gust
km/h
Spd
kts
Gust
kts
23/11:30pm 10.2 3.3 4.6 68 2.5 W 30 35 16 19 1006.4 1006.5 8.6
23/11:00pm 10.3 2.9 4.2 66 2.7 W 32 41 17 22 1006.3 1006.4 8.6
23/10:30pm 10.4 2.7 5.4 71 2.3 W 35 48 19 26 1006.4 1006.5 8.6
23/10:25pm 10.5 4.1 5.3 70 2.4 W 28 48 15 26 1006.3 1006.4 8.6
23/10:00pm 9.6 4.1 6.1 79 1.6 WNW 24 30 13 16 1006.1 1006.2 8.6
23/09:30pm 10.0 2.4 5.6 74 2.0 W 35 48 19 26 1006.2 1006.3 8.6
23/09:00pm 10.2 2.6 5.8 74 2.0 W 35 46 19 25 1005.9 1006.0 8.6
23/08:30pm 9.9 2.7 5.9 76 1.8 W 33 41 18 22 1005.8 1005.9 8.6
23/08:00pm 10.4 4.2 6.2 75 2.0 W 28 48 15 26 1005.5 1005.6 8.6

Latest Capital City Observations: Canberra | Sydney | Melbourne | Brisbane | Adelaide | Perth | Hobart | Darwin

Other Formats:

Comma delimited format used in spreadsheet applications
http://www.bom.gov.au/fwo/IDS60901/IDS60901.95676.axf

JavaScript Object Notation format (JSON) in row-major order
http://www.bom.gov.au/fwo/IDS60901/IDS60901.95676.json